Accueil
METAR-TAF:

METAR-TAF

Aéroports :

Alpnach, Suisse

latitude: 46-56-19N, longitude: 8-17-03E, altitude: 440 m

Observation

Le bulletin a été fait il y a 1 heure et 40 minutes, à 19:20 UTC
Vent 1 kt de direction variable
Température 1°C
Humidité 93%
Pression 1022 hPa
Visibilité: 0800 m
brouillard

METAR: LSMA 261920Z AUTO VRB01KT 0800NDV R01/0800VP2000U R19/0800V1200D FG VV001 01/00 Q1022 RMK

Heure: 22:00 (21:00 UTC)


TAF: absent

Observations et prévisions météorologiques de plus de 4000 aéroports (messages METAR et TAF).

Les stations disponibles sont représentées par des disques jaunes et rouges sur la carte.

Passer la souris dessus pour voir le nom de la station.

Cliquer dessus pour voir les observations et prévisions météorologiques.

Pour changer de carte: cliquez sur les boutons verts avec une croix noire pour zoomer, sur le bouton vert avec un tiret pour effectuer un zoom arrière, ou sur les flèches vertes pour les cartes adjacentes.


METAR-TAF: